Time;durP1;ratioP1;P1;durP2;ratioP2;P2;SDS_P1;SDS_P2;PMS_P1;PMS_P2;Temp;Humidity;BMP_temperature;BMP_pressure;BME280_temperature;BME280_humidity;BME280_pressure;Samples;Min_cycle;Max_cycle;Signal;HPM_P1;HPM_P2
2020/12/29 04:08:58;;;;;;;7.97;7.18;;;3.50;99.90;;;;;;5603562;23;20703;-76
2020/12/29 04:11:24;;;;;;;8.07;7.30;;;;;;;;;;5000639;28;20292;-76
2020/12/29 04:13:50;;;;;;;8.02;7.10;;;3.50;99.90;;;;;;4993530;28;20190;-77
2020/12/29 04:16:15;;;;;;;8.38;7.57;;;3.50;99.90;;;;;;4992318;28;20224;-76
2020/12/29 04:18:41;;;;;;;7.88;7.18;;;3.50;99.90;;;;;;4993619;28;20193;-80
2020/12/29 04:21:10;;;;;;;8.57;7.78;;;3.50;99.90;;;;;;4992321;28;20185;-80
2020/12/29 04:23:36;;;;;;;7.85;7.13;;;3.30;99.90;;;;;;4993071;28;20208;-77
2020/12/29 04:26:02;;;;;;;7.60;6.90;;;3.50;99.90;;;;;;5008543;28;20181;-79
2020/12/29 04:28:28;;;;;;;7.20;6.50;;;3.70;99.90;;;;;;4992150;28;20225;-80
2020/12/29 04:30:53;;;;;;;6.78;6.00;;;3.50;99.90;;;;;;4993345;28;20202;-80
2020/12/29 04:33:19;;;;;;;6.00;5.40;;;3.60;99.90;;;;;;4991862;28;20254;-79
2020/12/29 04:35:45;;;;;;;5.70;5.20;;;3.60;99.90;;;;;;4993319;28;20170;-79
2020/12/29 04:38:11;;;;;;;4.85;4.45;;;3.70;99.90;;;;;;4993065;28;20181;-79
2020/12/29 04:40:37;;;;;;;6.97;5.18;;;3.70;99.90;;;;;;4992878;28;20170;-79
2020/12/29 04:43:03;;;;;;;5.25;4.85;;;3.80;99.90;;;;;;4993023;28;20177;-80
2020/12/29 04:45:30;;;;;;;5.70;5.13;;;3.80;99.90;;;;;;4993246;28;20178;-79
2020/12/29 04:47:56;;;;;;;6.55;5.90;;;3.80;99.90;;;;;;4991661;28;20219;-79
2020/12/29 04:50:21;;;;;;;7.13;6.43;;;3.80;99.90;;;;;;4975749;28;20177;-79
2020/12/29 04:52:56;;;;;;;7.20;6.45;;;3.90;99.90;;;;;;5007910;28;20225;-77
2020/12/29 04:55:30;;;;;;;7.95;7.15;;;3.80;99.90;;;;;;5008066;28;20252;-76
2020/12/29 04:57:57;;;;;;;7.32;6.63;;;3.40;99.90;;;;;;4991872;28;20201;-76
2020/12/29 05:00:26;;;;;;;7.38;6.68;;;3.80;99.90;;;;;;4993041;28;20202;-76
2020/12/29 05:02:53;;;;;;;9.18;8.30;;;3.80;99.90;;;;;;4992923;28;20316;-76
2020/12/29 05:05:21;;;;;;;8.80;7.95;;;3.70;99.90;;;;;;4992621;28;20261;-77
2020/12/29 05:07:47;;;;;;;8.55;7.72;;;3.70;99.90;;;;;;4975496;28;20649;-79
2020/12/29 05:10:14;;;;;;;7.75;7.05;;;;;;;;;;5007516;28;20233;-79
2020/12/29 05:12:48;;;;;;;8.73;7.90;;;3.70;99.90;;;;;;4991543;28;20209;-79
2020/12/29 05:15:15;;;;;;;7.63;6.88;;;3.70;99.90;;;;;;4992748;28;20284;-79
2020/12/29 05:17:40;;;;;;;9.23;7.38;;;3.70;99.90;;;;;;4992836;28;20174;-80
2020/12/29 05:20:08;;;;;;;8.00;7.30;;;3.70;99.90;;;;;;4992521;28;20200;-79
2020/12/29 05:22:38;;;;;;;8.55;7.75;;;3.70;99.90;;;;;;4991376;28;20551;-79
2020/12/29 05:25:07;;;;;;;8.48;7.63;;;3.60;99.90;;;;;;4992369;28;20409;-79
2020/12/29 05:27:38;;;;;;;8.55;7.75;;;3.50;99.90;;;;;;4992743;28;20174;-79
2020/12/29 05:30:05;;;;;;;8.05;7.30;;;3.50;99.90;;;;;;4992574;28;20190;-79
2020/12/29 05:32:35;;;;;;;8.63;7.72;;;3.50;99.90;;;;;;4991219;28;20859;-80
2020/12/29 05:35:01;;;;;;;9.75;8.85;;;3.50;99.90;;;;;;4992449;28;20224;-79
2020/12/29 05:37:30;;;;;;;8.70;7.90;;;3.60;99.90;;;;;;4992549;28;20634;-79
2020/12/29 05:39:56;;;;;;;8.70;7.90;;;3.30;99.90;;;;;;5007059;28;20273;-80
2020/12/29 05:42:25;;;;;;;9.00;8.10;;;3.90;99.90;;;;;;5007623;28;20737;-79
2020/12/29 05:44:53;;;;;;;10.10;9.10;;;3.80;99.90;;;;;;4991092;28;20197;-80
2020/12/29 05:47:21;;;;;;;10.90;9.57;;;3.50;99.90;;;;;;4992608;28;20242;-79
2020/12/29 05:49:47;;;;;;;10.27;9.20;;;3.50;99.90;;;;;;4992311;28;20235;-80
2020/12/29 05:52:14;;;;;;;9.07;8.18;;;3.40;99.90;;;;;;4992357;28;20592;-79
2020/12/29 05:54:42;;;;;;;9.35;8.32;;;3.30;99.90;;;;;;4991972;28;20194;-79
2020/12/29 05:57:10;;;;;;;8.38;7.55;;;3.40;99.90;;;;;;4992483;28;20174;-79
2020/12/29 05:59:36;;;;;;;9.93;8.90;;;3.40;99.90;;;;;;4992184;28;20198;-80
2020/12/29 06:02:02;;;;;;;10.73;9.10;;;3.40;99.90;;;;;;4992423;28;20228;-79
2020/12/29 06:04:30;;;;;;;8.77;7.88;;;3.40;99.90;;;;;;4992490;28;20606;-79
2020/12/29 06:07:04;;;;;;;8.98;8.07;;;3.40;99.90;;;;;;4991014;28;20186;-80
2020/12/29 06:09:31;;;;;;;8.77;7.88;;;3.30;99.90;;;;;;4990776;28;20648;-80
2020/12/29 06:11:59;;;;;;;8.32;7.53;;;3.30;99.90;;;;;;4992684;28;20408;-79
2020/12/29 06:14:26;;;;;;;8.55;7.75;;;3.30;99.90;;;;;;4992131;28;20201;-80
2020/12/29 06:16:56;;;;;;;8.93;8.02;;;3.30;99.90;;;;;;4992187;28;20659;-79
2020/12/29 06:19:28;;;;;;;8.90;8.10;;;3.30;99.90;;;;;;5007878;28;20209;-80
2020/12/29 06:22:04;;;;;;;9.25;8.35;;;3.20;99.90;;;;;;4994466;28;20260;-80
2020/12/29 06:24:34;;;;;;;10.60;8.52;;;3.20;99.90;;;;;;4994109;28;20617;-79
2020/12/29 06:27:02;;;;;;;9.45;8.55;;;3.20;99.90;;;;;;4994411;28;20232;-79
2020/12/29 06:29:37;;;;;;;8.65;7.70;;;3.20;99.90;;;;;;4995700;28;20190;-80
2020/12/29 06:32:10;;;;;;;9.95;8.95;;;3.20;99.90;;;;;;4995148;28;20205;-80
2020/12/29 06:34:36;;;;;;;10.73;8.55;;;3.10;99.90;;;;;;4993907;28;20202;-79
2020/12/29 06:37:13;;;;;;;10.75;8.95;;;3.20;99.90;;;;;;4995143;28;20205;-79
2020/12/29 06:39:42;;;;;;;9.98;8.95;;;3.10;99.90;;;;;;5009879;28;20252;-80
2020/12/29 06:42:09;;;;;;;9.98;9.00;;;3.20;99.90;;;;;;4995141;28;20660;-79
2020/12/29 06:44:35;;;;;;;8.63;7.68;;;2.90;99.90;;;;;;5010193;28;20775;-79
2020/12/29 06:47:09;;;;;;;9.73;8.70;;;3.30;99.90;;;;;;5009822;28;20208;-80
2020/12/29 06:49:35;;;;;;;10.90;7.97;;;;;;;;;;4993726;28;20636;-79
2020/12/29 06:52:35;;;;;;;9.15;8.25;;;3.10;99.90;;;;;;4994708;28;20694;-80
2020/12/29 06:55:02;;;;;;;9.07;8.18;;;3.00;99.90;;;;;;4994653;28;20684;-80
2020/12/29 06:57:34;;;;;;;9.13;8.32;;;3.00;99.90;;;;;;4994877;28;20166;-79
2020/12/29 07:00:13;;;;;;;9.55;8.55;;;3.00;99.90;;;;;;4994832;28;20240;-79
2020/12/29 07:02:40;;;;;;;10.15;9.15;;;2.90;99.90;;;;;;4994495;28;20652;-80
2020/12/29 07:05:35;;;;;;;10.45;9.45;;;2.90;99.90;;;;;;4994987;28;20194;-80
2020/12/29 07:08:01;;;;;;;10.52;9.43;;;;;;;;;;4993129;28;20189;-80
2020/12/29 07:10:33;;;;;;;11.80;9.25;;;2.80;99.90;;;;;;4992964;28;20245;-80
2020/12/29 07:13:10;;;;;;;10.32;9.20;;;2.70;99.90;;;;;;4993125;28;20604;-80
2020/12/29 07:15:55;;;;;;;10.93;9.82;;;3.10;99.90;;;;;;4993482;28;20236;-79
2020/12/29 07:18:22;;;;;;;10.13;9.18;;;2.90;99.90;;;;;;4994389;28;20237;-80
2020/12/29 07:20:49;;;;;;;10.90;9.15;;;2.90;99.90;;;;;;4993142;28;20182;-80
2020/12/29 07:23:20;;;;;;;10.55;9.45;;;2.80;99.90;;;;;;4992715;28;20190;-79
2020/12/29 07:25:50;;;;;;;10.65;9.50;;;2.70;99.90;;;;;;4994361;28;20205;-80
2020/12/29 07:28:29;;;;;;;10.90;9.75;;;2.90;99.90;;;;;;4992962;28;20268;-80
2020/12/29 07:30:55;;;;;;;10.73;9.55;;;2.90;99.90;;;;;;4994164;28;20177;-80
2020/12/29 07:33:25;;;;;;;10.80;9.70;;;2.90;99.90;;;;;;4994193;28;20225;-80
2020/12/29 07:35:52;;;;;;;11.40;10.23;;;2.80;99.90;;;;;;4994513;28;20172;-80
2020/12/29 07:38:23;;;;;;;9.65;8.75;;;2.80;99.90;;;;;;4993695;28;20186;-80
2020/12/29 07:40:49;;;;;;;10.43;9.43;;;2.90;99.90;;;;;;4993081;28;20185;-80
2020/12/29 07:43:15;;;;;;;12.05;10.70;;;2.90;99.90;;;;;;4993977;28;20217;-80
2020/12/29 07:45:41;;;;;;;10.82;9.77;;;2.90;99.90;;;;;;5009296;28;20281;-79
2020/12/29 07:48:07;;;;;;;11.85;9.57;;;2.80;99.90;;;;;;5009224;28;20228;-80
2020/12/29 07:50:36;;;;;;;11.60;10.40;;;2.80;99.90;;;;;;4994069;28;20593;-80
2020/12/29 07:53:08;;;;;;;10.57;9.57;;;2.80;99.90;;;;;;4994502;28;20694;-79
2020/12/29 07:55:34;;;;;;;10.60;9.60;;;2.90;99.90;;;;;;4993559;28;20221;-80
2020/12/29 07:58:04;;;;;;;10.80;9.68;;;3.00;99.90;;;;;;4992541;28;20205;-80
2020/12/29 08:00:31;;;;;;;11.27;10.15;;;3.00;99.90;;;;;;4992653;28;20180;-80
2020/12/29 08:02:57;;;;;;;10.68;9.57;;;2.90;99.90;;;;;;4993782;28;20174;-80
2020/12/29 08:05:27;;;;;;;10.18;9.15;;;3.00;99.90;;;;;;5009019;28;20177;-79
2020/12/29 08:07:53;;;;;;;11.90;10.73;;;3.00;99.90;;;;;;4992454;28;20185;-80
2020/12/29 08:10:23;;;;;;;10.85;9.48;;;3.50;99.90;;;;;;4993407;28;20226;-80
2020/12/29 08:12:56;;;;;;;11.88;10.02;;;3.30;99.90;;;;;;4993612;28;20204;-80
2020/12/29 08:15:27;;;;;;;9.23;8.38;;;3.40;99.90;;;;;;4993650;28;20172;-80
2020/12/29 08:18:08;;;;;;;8.52;7.72;;;3.40;99.90;;;;;;4993480;28;20533;-79
2020/12/29 08:20:41;;;;;;;9.40;8.38;;;3.40;99.90;;;;;;4992263;28;20229;-79
2020/12/29 08:23:07;;;;;;;9.75;8.85;;;3.40;99.90;;;;;;4993593;28;20229;-80
2020/12/29 08:25:33;;;;;;;9.15;8.18;;;;;;;;;;5008012;28;20174;-80
2020/12/29 08:28:06;;;;;;;9.57;8.68;;;3.40;99.90;;;;;;4993579;28;20170;-80
2020/12/29 08:30:36;;;;;;;9.57;8.43;;;3.40;99.90;;;;;;4992030;28;20593;-80
2020/12/29 08:33:04;;;;;;;9.57;8.57;;;3.50;99.90;;;;;;4993259;28;20209;-79
2020/12/29 08:35:33;;;;;;;10.63;9.30;;;3.50;99.90;;;;;;4993146;28;20205;-79
2020/12/29 08:38:31;;;;;;;10.23;9.23;;;3.50;99.90;;;;;;4993313;28;20244;-79
2020/12/29 08:41:07;;;;;;;10.10;8.90;;;3.90;99.90;;;;;;4965645;28;20681;-79
2020/12/29 08:43:43;;;;;;;9.43;8.45;;;3.70;99.90;;;;;;4991506;28;20246;-80
2020/12/29 08:46:12;;;;;;;9.20;8.40;;;3.80;99.90;;;;;;4993380;28;20220;-80
2020/12/29 08:48:39;;;;;;;9.77;8.77;;;3.90;99.90;;;;;;4991712;28;20194;-80
2020/12/29 08:51:25;;;;;;;9.65;8.75;;;3.90;99.90;;;;;;4992869;28;20174;-80
2020/12/29 08:54:05;;;;;;;9.98;8.63;;;4.00;99.90;;;;;;5007633;28;20704;-79
2020/12/29 08:56:31;;;;;;;10.63;9.52;;;4.00;99.90;;;;;;4993063;28;20166;-79
2020/12/29 08:59:07;;;;;;;10.02;9.02;;;3.90;99.90;;;;;;5008076;28;20255;-80
2020/12/29 09:01:37;;;;;;;9.68;8.55;;;3.90;99.90;;;;;;4991856;28;20174;-79
2020/12/29 09:04:28;;;;;;;10.27;9.27;;;3.90;99.90;;;;;;4991503;28;20220;-80
2020/12/29 09:07:15;;;;;;;10.82;9.35;;;4.00;99.90;;;;;;4992628;28;20174;-79
2020/12/29 09:09:52;;;;;;;12.27;10.25;;;4.00;99.90;;;;;;4990692;28;20707;-79
2020/12/29 09:12:20;;;;;;;12.05;9.98;;;3.90;99.90;;;;;;4991218;28;20237;-79
2020/12/29 09:15:14;;;;;;;10.57;9.48;;;3.90;99.90;;;;;;4991615;28;20237;-79
2020/12/29 09:17:42;;;;;;;10.50;9.38;;;3.90;99.90;;;;;;4988230;28;20668;-79
2020/12/29 09:20:10;;;;;;;11.52;10.23;;;3.90;99.90;;;;;;5007726;28;20284;-79
2020/12/29 09:23:01;;;;;;;9.52;8.60;;;3.90;99.90;;;;;;4992488;28;20178;-80
2020/12/29 09:25:35;;;;;;;11.38;10.18;;;3.80;99.90;;;;;;4991182;28;20601;-79
2020/12/29 09:28:24;;;;;;;12.07;10.05;;;3.80;99.90;;;;;;4992639;28;20196;-80
2020/12/29 09:31:10;;;;;;;11.70;10.05;;;3.80;99.90;;;;;;4991382;28;20182;-79
2020/12/29 09:33:38;;;;;;;11.18;9.93;;;3.90;99.90;;;;;;4992417;28;20221;-79
2020/12/29 09:36:25;;;;;;;10.98;9.70;;;3.90;99.90;;;;;;4992463;28;20644;-80
2020/12/29 09:38:52;;;;;;;10.82;9.63;;;3.90;99.90;;;;;;4991520;28;20296;-80
2020/12/29 09:41:18;;;;;;;12.15;9.25;;;3.90;99.90;;;;;;4991323;28;20178;-80
2020/12/29 09:43:45;;;;;;;11.07;9.95;;;3.90;99.90;;;;;;4992220;28;20194;-79
2020/12/29 09:46:11;;;;;;;11.85;9.40;;;3.90;99.90;;;;;;4991399;28;20228;-80
2020/12/29 09:48:37;;;;;;;10.80;9.70;;;4.00;99.90;;;;;;5007251;28;20667;-79
2020/12/29 09:51:04;;;;;;;10.90;9.80;;;4.00;99.90;;;;;;4992487;28;20174;-79
2020/12/29 09:53:30;;;;;;;11.27;10.02;;;4.00;99.90;;;;;;4990620;28;20241;-79
2020/12/29 09:55:56;;;;;;;10.50;9.35;;;4.00;99.90;;;;;;4995599;28;20210;-79
2020/12/29 09:58:22;;;;;;;11.00;9.73;;;4.00;99.90;;;;;;4996089;28;20205;-79
2020/12/29 10:00:50;;;;;;;12.07;10.50;;;4.00;99.90;;;;;;4994831;28;20182;-79
2020/12/29 10:03:16;;;;;;;12.90;10.70;;;4.00;99.90;;;;;;4995984;28;20198;-79
2020/12/29 10:05:43;;;;;;;13.35;11.07;;;4.00;99.90;;;;;;4994728;28;20655;-79
2020/12/29 10:08:12;;;;;;;12.73;11.25;;;4.10;99.90;;;;;;4994478;28;20185;-79
2020/12/29 10:10:39;;;;;;;13.50;11.88;;;4.10;99.90;;;;;;5011015;28;20207;-79
2020/12/29 10:13:05;;;;;;;14.63;12.73;;;4.10;99.90;;;;;;4995837;28;20241;-79
2020/12/29 10:15:31;;;;;;;14.30;12.73;;;4.10;99.90;;;;;;4995764;28;20723;-80
2020/12/29 10:17:57;;;;;;;15.98;12.80;;;4.10;99.90;;;;;;4995726;28;20224;-80
2020/12/29 10:20:23;;;;;;;15.57;13.27;;;4.20;99.90;;;;;;5010855;28;20178;-79
2020/12/29 10:22:49;;;;;;;16.08;13.90;;;4.20;99.90;;;;;;4994676;28;20215;-80
2020/12/29 10:25:14;;;;;;;16.50;14.05;;;4.20;99.90;;;;;;4995333;28;20209;-79
2020/12/29 10:27:47;;;;;;;15.98;13.48;;;4.20;99.90;;;;;;4994382;28;20174;-79
2020/12/29 10:30:13;;;;;;;19.70;15.70;;;4.20;99.90;;;;;;5010606;28;20281;-79
2020/12/29 10:32:40;;;;;;;16.55;14.57;;;4.20;99.90;;;;;;4994177;28;20213;-79
2020/12/29 10:35:07;;;;;;;16.00;14.30;;;4.20;99.90;;;;;;4995548;28;20186;-80
2020/12/29 10:37:32;;;;;;;14.82;13.30;;;4.20;99.90;;;;;;4994281;28;20178;-80
2020/12/29 10:39:58;;;;;;;17.70;14.82;;;4.20;99.90;;;;;;4993780;28;20190;-80
2020/12/29 10:42:24;;;;;;;15.52;13.82;;;4.20;99.90;;;;;;4977833;28;20701;-79
2020/12/29 10:44:50;;;;;;;18.00;13.55;;;4.20;99.90;;;;;;5010318;28;20574;-80
2020/12/29 10:47:16;;;;;;;15.93;13.50;;;4.20;99.90;;;;;;4995353;28;20177;-79
2020/12/29 10:49:42;;;;;;;15.68;13.38;;;4.20;99.90;;;;;;4995273;28;20197;-79
2020/12/29 10:52:07;;;;;;;14.93;13.18;;;4.20;99.90;;;;;;4994966;28;20205;-79
2020/12/29 10:54:33;;;;;;;14.70;13.13;;;4.20;99.90;;;;;;4994839;28;20201;-79
2020/12/29 10:56:59;;;;;;;14.70;13.15;;;4.30;99.90;;;;;;4995491;28;20181;-79
2020/12/29 10:59:25;;;;;;;15.07;13.23;;;4.30;99.90;;;;;;4993751;28;20198;-80
2020/12/29 11:01:57;;;;;;;15.65;13.25;;;4.30;99.90;;;;;;4993613;28;20181;-80
2020/12/29 11:04:24;;;;;;;14.18;12.68;;;4.30;99.90;;;;;;4995102;28;20687;-80
2020/12/29 11:06:51;;;;;;;14.75;13.10;;;4.30;99.90;;;;;;4994580;28;20246;-80
2020/12/29 11:09:17;;;;;;;16.52;13.65;;;4.40;99.90;;;;;;4993340;28;20373;-79
2020/12/29 11:11:43;;;;;;;15.95;13.25;;;4.30;99.90;;;;;;4994739;28;20649;-79
2020/12/29 11:14:09;;;;;;;15.95;13.40;;;4.30;99.90;;;;;;4994698;28;20217;-80
2020/12/29 11:16:35;;;;;;;15.68;13.43;;;4.30;99.90;;;;;;4993520;28;20178;-80
2020/12/29 11:19:00;;;;;;;15.43;12.82;;;4.30;99.90;;;;;;4994638;28;20604;-80
2020/12/29 11:21:26;;;;;;;14.07;12.55;;;4.30;99.90;;;;;;4994786;28;20256;-80
2020/12/29 11:23:52;;;;;;;15.93;13.85;;;4.40;99.90;;;;;;4992858;28;20197;-79
2020/12/29 11:26:20;;;;;;;15.10;13.57;;;4.30;99.90;;;;;;4994685;28;20174;-79
2020/12/29 11:28:49;;;;;;;15.02;13.25;;;4.40;99.90;;;;;;4994318;28;20201;-80
2020/12/29 11:31:20;;;;;;;15.00;13.50;;;4.40;99.90;;;;;;4993265;28;20304;-80
2020/12/29 11:33:46;;;;;;;15.73;12.63;;;4.40;99.90;;;;;;4994231;28;20221;-80
2020/12/29 11:36:17;;;;;;;14.38;12.88;;;4.30;99.90;;;;;;4994779;28;20200;-79
2020/12/29 11:38:42;;;;;;;14.57;12.77;;;4.40;99.90;;;;;;4992925;28;20208;-79
2020/12/29 11:41:08;;;;;;;14.13;12.63;;;4.40;99.90;;;;;;4994196;28;20170;-79
2020/12/29 11:43:34;;;;;;;15.02;13.48;;;4.40;99.90;;;;;;4992847;28;20255;-80
2020/12/29 11:46:01;;;;;;;14.68;13.10;;;4.40;99.90;;;;;;4992928;28;20169;-80
2020/12/29 11:48:28;;;;;;;13.40;12.00;;;4.40;99.90;;;;;;5009032;28;20206;-80
2020/12/29 11:50:53;;;;;;;13.48;12.05;;;4.40;99.90;;;;;;4994172;28;20177;-80
2020/12/29 11:53:19;;;;;;;13.30;11.98;;;4.60;99.90;;;;;;4993527;28;20578;-80
2020/12/29 11:55:45;;;;;;;13.68;12.27;;;4.60;99.90;;;;;;4993897;28;20235;-80
2020/12/29 11:58:11;;;;;;;12.98;11.68;;;4.70;99.90;;;;;;4994112;28;20615;-80
2020/12/29 12:00:37;;;;;;;13.32;11.93;;;4.80;99.90;;;;;;4992569;28;20174;-80
2020/12/29 12:03:03;;;;;;;12.85;11.55;;;4.80;99.90;;;;;;4993844;28;20521;-80
2020/12/29 12:05:28;;;;;;;14.88;12.20;;;4.90;99.90;;;;;;4992560;28;20221;-80
2020/12/29 12:07:54;;;;;;;12.18;10.98;;;4.90;99.90;;;;;;5008923;28;20209;-80
2020/12/29 12:10:20;;;;;;;13.10;11.65;;;5.00;99.90;;;;;;5008288;28;20276;-80
2020/12/29 12:12:45;;;;;;;13.98;12.57;;;5.00;99.90;;;;;;4993710;28;20205;-80
2020/12/29 12:15:11;;;;;;;12.70;11.48;;;5.10;99.90;;;;;;4993565;28;20652;-80
2020/12/29 12:17:37;;;;;;;13.07;11.30;;;5.10;99.90;;;;;;4993111;28;20185;-80
2020/12/29 12:20:03;;;;;;;15.10;12.27;;;5.10;99.90;;;;;;4992168;28;20582;-80
2020/12/29 12:22:29;;;;;;;13.32;11.98;;;5.10;99.90;;;;;;5008675;28;20173;-79
2020/12/29 12:24:55;;;;;;;13.75;12.35;;;5.00;99.90;;;;;;4991493;28;20256;-80
2020/12/29 12:27:21;;;;;;;14.35;12.85;;;5.00;99.90;;;;;;4992113;28;20177;-80
2020/12/29 12:29:47;;;;;;;13.20;11.93;;;5.00;99.90;;;;;;4993657;28;20289;-79
2020/12/29 12:32:13;;;;;;;13.48;12.07;;;5.00;99.90;;;;;;4993420;28;20680;-80
2020/12/29 12:34:39;;;;;;;14.70;13.00;;;5.00;99.90;;;;;;4993402;28;20277;-80
2020/12/29 12:37:05;;;;;;;15.02;13.48;;;4.90;99.90;;;;;;4993111;28;20313;-80
2020/12/29 12:39:32;;;;;;;17.77;15.88;;;4.90;99.90;;;;;;4992924;28;20194;-80
2020/12/29 12:41:58;;;;;;;17.60;15.25;;;4.90;99.90;;;;;;4991798;28;20683;-79
2020/12/29 12:44:23;;;;;;;16.98;15.13;;;4.80;99.90;;;;;;4993119;28;20240;-79
2020/12/29 12:46:49;;;;;;;17.75;15.55;;;4.80;99.90;;;;;;4993043;28;20252;-80
2020/12/29 12:49:15;;;;;;;21.65;16.45;;;4.70;99.90;;;;;;4991888;28;20209;-80
2020/12/29 12:51:47;;;;;;;17.45;15.43;;;4.80;99.90;;;;;;4991607;28;20712;-79
2020/12/29 12:54:14;;;;;;;18.00;15.02;;;4.70;99.90;;;;;;4991414;28;20205;-80
2020/12/29 12:56:44;;;;;;;15.93;14.23;;;4.70;99.90;;;;;;5007953;28;20181;-79
2020/12/29 12:59:12;;;;;;;16.42;14.43;;;4.70;99.90;;;;;;4991658;28;20196;-80
2020/12/29 13:01:40;;;;;;;15.50;13.90;;;4.70;99.90;;;;;;4991463;28;20755;-80
2020/12/29 13:04:06;;;;;;;17.83;15.93;;;4.70;99.90;;;;;;4991516;28;20205;-80
2020/12/29 13:06:32;;;;;;;17.88;15.32;;;4.80;99.90;;;;;;4991476;28;20177;-80
2020/12/29 13:08:59;;;;;;;16.58;14.48;;;4.80;99.90;;;;;;5007417;28;20230;-80
2020/12/29 13:11:25;;;;;;;17.55;15.38;;;4.80;99.90;;;;;;4992738;28;20262;-80
2020/12/29 13:13:51;;;;;;;16.50;14.70;;;4.80;99.90;;;;;;4991500;28;20248;-81
2020/12/29 13:16:18;;;;;;;16.73;14.93;;;4.90;99.90;;;;;;4992814;28;20256;-80
2020/12/29 13:18:44;;;;;;;15.50;13.90;;;4.80;99.90;;;;;;4992429;28;20655;-80
2020/12/29 13:21:12;;;;;;;17.30;14.40;;;4.80;99.90;;;;;;4992883;28;20720;-80
2020/12/29 13:23:38;;;;;;;17.40;14.73;;;4.80;99.90;;;;;;5007308;28;20575;-79
2020/12/29 13:26:04;;;;;;;16.10;14.48;;;4.80;99.90;;;;;;4991498;28;20363;-80
2020/12/29 13:28:30;;;;;;;17.98;15.00;;;4.90;99.90;;;;;;4992285;28;20271;-79
2020/12/29 13:30:55;;;;;;;17.23;14.00;;;4.80;99.90;;;;;;4996813;28;20456;-79
2020/12/29 13:33:21;;;;;;;15.55;13.88;;;4.80;99.90;;;;;;4996432;28;20235;-80
2020/12/29 13:35:47;;;;;;;16.27;14.27;;;4.80;99.90;;;;;;5012079;28;20170;-80
2020/12/29 13:38:13;;;;;;;18.20;15.65;;;4.80;99.90;;;;;;4996532;28;20189;-80
2020/12/29 13:40:39;;;;;;;17.63;15.40;;;4.80;99.90;;;;;;4995497;28;20662;-80
2020/12/29 13:43:04;;;;;;;16.13;14.43;;;4.80;99.90;;;;;;4995339;28;20263;-80
2020/12/29 13:45:30;;;;;;;17.67;14.23;;;4.80;99.90;;;;;;4996609;28;20633;-80
2020/12/29 13:47:56;;;;;;;15.98;14.38;;;4.90;99.90;;;;;;5011280;28;20181;-80
2020/12/29 13:50:22;;;;;;;15.80;13.65;;;4.90;99.90;;;;;;4996609;28;20293;-80
2020/12/29 13:52:50;;;;;;;17.40;14.68;;;4.90;99.90;;;;;;4994902;28;20217;-80
2020/12/29 13:55:16;;;;;;;16.15;14.45;;;4.80;99.90;;;;;;4995822;28;20196;-80
2020/12/29 13:57:41;;;;;;;16.58;14.85;;;4.90;99.90;;;;;;4994924;28;20174;-80
2020/12/29 14:00:08;;;;;;;15.63;14.02;;;4.80;99.90;;;;;;5011039;28;20575;-79
2020/12/29 14:02:33;;;;;;;15.98;14.35;;;4.80;99.90;;;;;;4996191;28;20531;-80
2020/12/29 14:04:59;;;;;;;16.42;14.75;;;4.80;99.90;;;;;;4995954;28;20205;-80
2020/12/29 14:07:25;;;;;;;16.42;14.73;;;4.70;99.90;;;;;;4996160;28;20201;-80
2020/12/29 14:09:51;;;;;;;16.25;14.43;;;4.80;99.90;;;;;;4995479;28;20256;-80
2020/12/29 14:12:16;;;;;;;16.85;14.40;;;4.70;99.90;;;;;;4995939;28;20201;-80
2020/12/29 14:14:43;;;;;;;17.42;15.10;;;4.60;99.90;;;;;;4995648;28;20190;-80
2020/12/29 14:17:08;;;;;;;17.42;14.40;;;4.60;99.90;;;;;;5011035;28;20554;-80
2020/12/29 14:19:34;;;;;;;18.42;15.98;;;4.60;99.90;;;;;;4995856;28;20190;-80
2020/12/29 14:22:00;;;;;;;16.67;14.77;;;4.60;99.90;;;;;;4994787;28;20802;-80
2020/12/29 14:24:26;;;;;;;16.95;14.98;;;4.60;99.90;;;;;;4993924;28;20205;-80
2020/12/29 14:26:54;;;;;;;15.75;13.88;;;4.60;99.90;;;;;;4994572;28;20590;-80
2020/12/29 14:29:22;;;;;;;18.23;15.38;;;4.70;99.90;;;;;;4994164;28;20194;-79
2020/12/29 14:31:50;;;;;;;15.88;14.23;;;4.60;99.90;;;;;;4994401;28;20182;-80
2020/12/29 14:34:16;;;;;;;16.83;14.60;;;4.60;99.90;;;;;;4994357;28;20233;-80
2020/12/29 14:36:42;;;;;;;16.15;14.05;;;4.60;99.90;;;;;;4995417;28;20185;-80
2020/12/29 14:39:09;;;;;;;16.92;14.95;;;4.60;99.90;;;;;;4993828;28;20733;-80
2020/12/29 14:41:35;;;;;;;16.15;14.45;;;4.60;99.90;;;;;;4993527;28;20652;-80
2020/12/29 14:44:02;;;;;;;16.30;14.23;;;4.70;99.90;;;;;;4993924;28;20202;-80
2020/12/29 14:46:27;;;;;;;16.42;14.68;;;4.60;99.90;;;;;;4995353;28;20702;-80
2020/12/29 14:48:54;;;;;;;16.38;14.68;;;4.60;99.90;;;;;;4995229;28;20286;-80
2020/12/29 14:51:29;;;;;;;15.93;14.30;;;4.60;99.90;;;;;;4993909;28;20174;-80
2020/12/29 14:53:57;;;;;;;18.52;15.50;;;4.50;99.90;;;;;;4993489;28;20217;-80
2020/12/29 14:56:24;;;;;;;17.52;15.43;;;4.50;99.90;;;;;;4994972;28;20168;-80
2020/12/29 14:58:50;;;;;;;19.40;16.38;;;4.50;99.90;;;;;;4993782;28;20201;-80
2020/12/29 15:01:36;;;;;;;17.98;14.93;;;4.50;99.90;;;;;;4995008;28;20174;-80
2020/12/29 15:04:03;;;;;;;19.48;16.20;;;4.50;99.90;;;;;;4994991;28;20190;-80
2020/12/29 15:06:34;;;;;;;18.33;15.88;;;4.50;99.90;;;;;;4993536;28;20182;-80
2020/12/29 15:09:02;;;;;;;18.52;16.23;;;4.50;99.90;;;;;;4993252;28;20234;-80
2020/12/29 15:11:29;;;;;;;18.60;15.40;;;4.60;99.90;;;;;;4993529;28;20174;-79
2020/12/29 15:13:56;;;;;;;18.70;16.42;;;4.60;99.90;;;;;;5009812;28;20229;-80
2020/12/29 15:16:22;;;;;;;20.13;17.42;;;4.50;99.90;;;;;;4993554;28;20202;-80
2020/12/29 15:18:49;;;;;;;22.95;17.23;;;4.50;99.90;;;;;;4993438;28;20198;-80
2020/12/29 15:21:15;;;;;;;19.55;16.52;;;4.40;99.90;;;;;;4994684;28;20173;-80
2020/12/29 15:23:41;;;;;;;17.45;15.48;;;4.40;99.90;;;;;;4993100;28;20232;-80
2020/12/29 15:26:08;;;;;;;17.15;15.10;;;4.40;99.90;;;;;;4994631;28;20176;-80
2020/12/29 15:28:35;;;;;;;19.77;16.15;;;4.40;99.90;;;;;;4994902;28;20200;-80
2020/12/29 15:31:01;;;;;;;19.55;17.05;;;4.40;99.90;;;;;;4993316;28;20209;-80
2020/12/29 15:33:28;;;;;;;20.80;16.63;;;4.40;99.90;;;;;;4994268;28;20224;-80
2020/12/29 15:35:55;;;;;;;21.15;18.02;;;4.40;99.90;;;;;;4994501;28;20629;-80
2020/12/29 15:38:21;;;;;;;20.67;17.15;;;4.40;99.90;;;;;;4993743;28;20209;-80
2020/12/29 15:40:47;;;;;;;19.50;17.23;;;4.40;99.90;;;;;;4994706;28;20210;-80
2020/12/29 15:43:13;;;;;;;20.55;17.63;;;4.40;99.90;;;;;;4994262;28;20193;-80
2020/12/29 15:45:39;;;;;;;19.88;16.42;;;4.40;99.90;;;;;;4994456;28;20691;-80
2020/12/29 15:48:05;;;;;;;18.98;16.67;;;4.40;99.90;;;;;;5009208;28;20197;-80
2020/12/29 15:50:31;;;;;;;18.27;16.27;;;4.40;99.90;;;;;;4994246;28;20586;-79
2020/12/29 15:52:59;;;;;;;19.10;17.05;;;4.30;99.90;;;;;;4992720;28;20205;-80
2020/12/29 15:55:25;;;;;;;17.90;16.00;;;4.30;99.90;;;;;;4993826;28;20249;-80
2020/12/29 15:57:51;;;;;;;19.58;16.23;;;4.30;99.90;;;;;;4992745;28;20210;-80
2020/12/29 16:00:17;;;;;;;19.83;16.23;;;4.30;99.90;;;;;;4994279;28;20224;-80
2020/12/29 16:02:42;;;;;;;17.45;15.32;;;4.30;99.90;;;;;;4994012;28;20170;-81
2020/12/29 16:05:13;;;;;;;18.15;15.55;;;4.20;99.90;;;;;;4993946;28;20198;-80
2020/12/29 16:07:39;;;;;;;18.35;15.75;;;4.20;99.90;;;;;;4992693;28;20177;-80
2020/12/29 16:10:07;;;;;;;20.80;17.23;;;4.20;99.90;;;;;;4992421;28;20245;-80
2020/12/29 16:12:33;;;;;;;20.08;16.42;;;4.20;99.90;;;;;;5008878;28;20210;-80
2020/12/29 16:14:59;;;;;;;20.17;16.95;;;4.10;99.90;;;;;;4993680;28;20205;-80
2020/12/29 16:17:25;;;;;;;20.23;17.90;;;4.10;99.90;;;;;;4993770;28;20182;-80
2020/12/29 16:19:52;;;;;;;19.63;17.52;;;4.20;99.90;;;;;;4992297;28;20217;-80
2020/12/29 16:22:18;;;;;;;20.30;17.60;;;4.20;99.90;;;;;;5002147;28;20648;-80
2020/12/29 16:24:48;;;;;;;20.17;16.20;;;4.20;99.90;;;;;;5010596;28;20197;-80
2020/12/29 16:27:14;;;;;;;20.45;17.27;;;4.20;99.90;;;;;;5011214;28;20667;-80
2020/12/29 16:29:41;;;;;;;21.77;17.95;;;4.10;99.90;;;;;;5013186;28;20232;-80
2020/12/29 16:32:15;;;;;;;20.15;16.98;;;4.10;99.90;;;;;;5012970;28;20169;-80
2020/12/29 16:34:42;;;;;;;20.27;17.85;;;4.10;99.90;;;;;;5011614;28;20646;-80
2020/12/29 16:37:08;;;;;;;19.30;16.45;;;4.10;99.90;;;;;;5013081;28;20177;-80
2020/12/29 16:39:34;;;;;;;20.23;16.70;;;4.10;99.90;;;;;;5012377;28;20291;-80
2020/12/29 16:42:08;;;;;;;17.88;14.90;;;4.10;99.90;;;;;;5012920;28;20192;-80
2020/12/29 16:44:34;;;;;;;16.00;13.77;;;4.10;99.90;;;;;;5012716;28;20196;-80
2020/12/29 16:47:00;;;;;;;15.75;14.10;;;4.20;99.90;;;;;;5011652;28;20209;-80
2020/12/29 16:49:26;;;;;;;16.38;14.57;;;4.20;99.90;;;;;;5011232;28;20218;-80
2020/12/29 16:51:52;;;;;;;18.67;15.50;;;4.20;99.90;;;;;;5011495;28;20223;-80
2020/12/29 16:54:18;;;;;;;15.63;14.07;;;4.20;99.90;;;;;;5012262;28;20683;-80
2020/12/29 16:56:44;;;;;;;16.85;14.15;;;4.20;99.90;;;;;;5011363;28;20173;-79
2020/12/29 16:59:10;;;;;;;15.85;13.80;;;4.30;99.90;;;;;;5012646;28;20730;-80